Terminal Aerodrome Forecast
Issued by NWS Missoula, MT

Home | Current Version | Previous Version | Text Only | Print | Product List | Glossary On
Versions: 1 2 3 4 5 6 7 8 9 10 11 12 13 14 15 16
238
FTUS45 KMSO 101120
TAFBTM
TAF
KBTM 101120Z 1012/1112 VRB03KT 4SM -SN BR OVC040
     FM101600 VRB03KT P6SM VCSH OVC050
     FM102100 31009G17KT P6SM VCSH BKN060
     FM110000 VRB05KT P6SM OVC050=

USA.gov is the U.S. government's official web portal to all federal, state and local government web resources and services.